Terminal Aerodrome Forecast
Issued by NWS

Home | Current Version | Previous Version | Text Only | Print | Product List | Glossary On
Versions: 1 2 3 4 5 6 7 8 9 10 11 12 13
401
FTUS42 KTAE 280520
TAFDHN
TAF
KDHN 280520Z 2806/2906 05004KT P6SM BKN250
     FM281200 10008KT P6SM SCT035 SCT050
     FM282100 11008KT P6SM VCTS BKN035CB=

USA.gov is the U.S. government's official web portal to all federal, state and local government web resources and services.